Time;durP1;ratioP1;P1;durP2;ratioP2;P2;SDS_P1;SDS_P2;PMS_P1;PMS_P2;Temp;Humidity;BMP_temperature;BMP_pressure;BME280_temperature;BME280_humidity;BME280_pressure;Samples;Min_cycle;Max_cycle;Signal;HPM_P1;HPM_P2
2021/08/13 00:01:33;;;;;;;8.13;5.43;;;;;;;15.90;48.84;95996.25;5008758;28;20124;-68
2021/08/13 00:03:59;;;;;;;9.60;5.88;;;;;;;15.86;48.81;95987.78;5004141;28;20048;-68
2021/08/13 00:06:24;;;;;;;7.65;5.72;;;;;;;15.87;48.84;95983.25;5008274;28;20029;-68
2021/08/13 00:08:50;;;;;;;9.25;5.40;;;;;;;15.87;48.47;95985.91;5008391;28;20651;-68
2021/08/13 00:11:15;;;;;;;8.23;5.60;;;;;;;15.90;48.52;95982.84;5008631;28;20045;-68
2021/08/13 00:13:40;;;;;;;8.73;5.53;;;;;;;15.85;48.90;95979.94;5008764;28;20569;-68
2021/08/13 00:16:06;;;;;;;8.48;5.60;;;;;;;15.87;48.68;95980.56;5008659;28;20049;-68
2021/08/13 00:18:31;;;;;;;7.47;5.15;;;;;;;15.87;48.69;95984.06;5002486;28;20018;-67
2021/08/13 00:20:57;;;;;;;7.35;5.50;;;;;;;15.85;48.34;95982.63;5008509;28;20515;-67
2021/08/13 00:23:22;;;;;;;8.07;5.30;;;;;;;15.84;48.18;95980.97;5008409;28;20041;-68
2021/08/13 00:25:48;;;;;;;7.30;5.07;;;;;;;15.84;48.26;95981.78;5008207;28;20038;-68
2021/08/13 00:28:13;;;;;;;9.98;5.15;;;;;;;15.82;48.35;95985.72;4990387;28;20049;-68
2021/08/13 00:30:38;;;;;;;8.32;5.32;;;;;;;15.75;48.53;95981.13;5008903;28;20676;-68
2021/08/13 00:33:04;;;;;;;6.88;5.05;;;;;;;15.73;48.54;95975.16;5008014;28;20042;-68
2021/08/13 00:35:29;;;;;;;8.90;5.57;;;;;;;15.67;48.88;95973.28;5008850;28;20046;-68
2021/08/13 00:37:55;;;;;;;9.98;5.05;;;;;;;15.65;48.62;95979.88;5008490;28;20053;-68
2021/08/13 00:40:20;;;;;;;6.95;4.80;;;;;;;15.64;48.15;95980.91;5008540;28;20041;-68
2021/08/13 00:42:45;;;;;;;8.00;5.03;;;;;;;15.59;48.02;95982.34;5007524;28;20560;-68
2021/08/13 00:45:11;;;;;;;8.05;5.03;;;;;;;15.54;48.35;95983.94;5007171;28;20396;-69
2021/08/13 00:47:36;;;;;;;8.23;4.80;;;;;;;15.48;48.90;95978.38;5008353;28;20029;-68
2021/08/13 00:50:03;;;;;;;9.32;4.80;;;;;;;15.46;48.61;95985.78;5008242;28;20045;-66
2021/08/13 00:52:29;;;;;;;5.75;4.63;;;;;;;15.44;48.56;95979.78;5008091;28;20483;-66
2021/08/13 00:54:54;;;;;;;7.68;4.97;;;;;;;15.42;48.53;95981.84;5006850;28;20053;-68
2021/08/13 00:57:19;;;;;;;7.85;5.03;;;;;;;15.41;48.63;95980.19;5006347;28;20069;-67
2021/08/13 00:59:45;;;;;;;6.45;4.90;;;;;;;15.38;49.22;95974.38;5008247;28;20029;-67
2021/08/13 01:02:10;;;;;;;6.28;4.63;;;;;;;15.34;49.21;95980.13;5006370;28;20050;-67
2021/08/13 01:04:36;;;;;;;7.20;4.43;;;;;;;15.32;48.89;95976.00;5006425;28;20434;-68
2021/08/13 01:07:02;;;;;;;5.90;4.47;;;;;;;15.29;49.15;95985.28;5005715;28;20044;-68
2021/08/13 01:09:27;;;;;;;6.65;4.68;;;;;;;15.27;49.25;95986.50;5007770;28;20057;-65
2021/08/13 01:12:03;;;;;;;7.18;4.53;;;;;;;15.19;48.59;95982.97;5007030;28;20085;-64
2021/08/13 01:15:06;;;;;;;9.07;4.57;;;;;;;15.17;49.07;95978.84;5008296;28;20046;-67
2021/08/13 01:17:47;;;;;;;6.63;4.50;;;;;;;15.11;48.80;95983.13;5006974;28;20081;-67
2021/08/13 01:20:40;;;;;;;6.78;4.47;;;;;;;15.08;48.91;95980.84;5001586;28;20046;-68
2021/08/13 01:23:09;;;;;;;9.50;4.65;;;;;;;15.10;48.98;95984.97;5005460;28;20380;-68
2021/08/13 01:25:36;;;;;;;13.60;5.35;;;;;;;15.09;49.28;95983.34;5005645;28;20041;-69
2021/08/13 01:28:31;;;;;;;7.13;4.63;;;;;;;15.05;49.20;95981.22;5006464;28;20030;-67
2021/08/13 01:30:56;;;;;;;8.15;4.90;;;;;;;15.08;49.73;95986.22;4996031;28;20057;-69
2021/08/13 01:33:21;;;;;;;6.38;4.63;;;;;;;15.13;49.03;95981.06;5005830;28;20042;-66
2021/08/13 01:35:47;;;;;;;7.53;4.65;;;;;;;15.11;49.41;95975.09;4989852;28;20026;-66
2021/08/13 01:38:18;;;;;;;7.38;4.85;;;;;;;15.11;49.13;95975.09;5005781;28;20048;-68
2021/08/13 01:40:47;;;;;;;7.60;4.80;;;;;;;15.15;49.19;95981.72;5006060;28;20045;-68
2021/08/13 01:43:14;;;;;;;6.72;4.85;;;;;;;15.15;49.42;95979.03;5007781;28;20034;-68
2021/08/13 01:45:39;;;;;;;7.00;4.60;;;;;;;15.15;49.21;95976.34;4989920;28;20132;-68
2021/08/13 01:48:05;;;;;;;7.82;4.75;;;;;;;15.09;49.89;95974.44;5007364;28;20291;-68
2021/08/13 01:50:30;;;;;;;6.85;4.63;;;;;;;15.06;49.98;95977.56;5008305;28;20041;-68
2021/08/13 01:52:57;;;;;;;5.93;4.75;;;;;;;15.04;49.76;95969.69;5005964;28;20107;-68
2021/08/13 01:55:22;;;;;;;6.38;4.75;;;;;;;15.07;49.59;95971.16;5009833;28;20129;-69
2021/08/13 01:57:48;;;;;;;6.40;4.57;;;;;;;15.08;49.35;95975.47;5009391;28;20563;-68
2021/08/13 02:00:18;;;;;;;8.30;4.88;;;;;;;15.07;49.65;95973.84;4993126;28;20034;-67
2021/08/13 02:02:44;;;;;;;7.45;4.82;;;;;;;15.07;49.60;95973.84;5007870;28;20076;-68
2021/08/13 02:05:10;;;;;;;9.40;4.82;;;;;;;15.11;49.47;95964.38;5008631;28;20061;-67
2021/08/13 02:07:36;;;;;;;7.93;5.00;;;;;;;15.09;49.41;95971.78;5009460;28;20100;-67
2021/08/13 02:10:03;;;;;;;6.72;4.63;;;;;;;15.10;48.99;95979.63;5009240;28;20552;-67
2021/08/13 02:12:28;;;;;;;6.85;4.43;;;;;;;15.16;48.24;95972.63;5010605;28;20041;-67
2021/08/13 02:14:54;;;;;;;6.88;4.38;;;;;;;15.10;48.98;95978.81;5009629;28;20096;-68
2021/08/13 02:17:19;;;;;;;7.03;4.55;;;;;;;15.09;48.72;95977.97;5008783;28;20092;-69
2021/08/13 02:19:51;;;;;;;6.20;4.65;;;;;;;15.06;49.04;95988.28;5009684;28;20026;-68
2021/08/13 02:22:16;;;;;;;7.00;4.75;;;;;;;15.01;49.27;95986.19;4993294;28;20038;-68
2021/08/13 02:24:41;;;;;;;9.70;4.70;;;;;;;14.93;49.88;95983.66;5010396;28;20049;-68
2021/08/13 02:27:07;;;;;;;6.50;4.40;;;;;;;14.91;49.71;95977.66;5010756;28;20030;-68
2021/08/13 02:29:32;;;;;;;6.30;4.40;;;;;;;14.90;49.20;95965.28;5010726;28;20626;-69
2021/08/13 02:31:58;;;;;;;5.90;4.28;;;;;;;14.88;49.22;95970.00;5010329;28;20041;-69
2021/08/13 02:34:23;;;;;;;8.40;4.30;;;;;;;14.89;48.71;95972.50;5010875;28;20034;-69
2021/08/13 02:37:02;;;;;;;9.75;4.45;;;;;;;14.87;48.36;95974.56;5009978;28;20046;-68
2021/08/13 02:39:55;;;;;;;7.90;4.15;;;;;;;14.79;48.98;95969.34;5009501;28;20728;-69
2021/08/13 02:42:22;;;;;;;6.53;4.65;;;;;;;;;;5008976;28;20062;-69
2021/08/13 02:44:49;;;;;;;6.68;4.90;;;;;;;;;;5008674;28;20102;-69
2021/08/13 02:47:14;;;;;;;6.72;4.80;;;;;;;14.79;49.83;95977.38;5010052;28;20034;-68
2021/08/13 02:49:48;;;;;;;6.28;4.55;;;;;;;14.77;49.31;95964.19;4992621;28;20038;-68
2021/08/13 02:52:14;;;;;;;6.28;4.75;;;;;;;14.81;49.55;95968.13;4992681;28;20042;-68
2021/08/13 02:54:39;;;;;;;6.70;4.78;;;;;;;14.83;49.63;95976.78;5008527;28;20471;-68
2021/08/13 02:57:05;;;;;;;9.02;4.53;;;;;;;14.90;48.78;95981.38;5008045;28;20046;-69
2021/08/13 02:59:30;;;;;;;5.18;4.20;;;;;;;14.87;49.26;95974.56;5009051;28;20034;-69
2021/08/13 03:01:56;;;;;;;6.18;4.32;;;;;;;14.85;49.50;95976.59;5008660;28;20748;-69
2021/08/13 03:04:22;;;;;;;6.50;4.28;;;;;;;14.84;49.20;95972.25;5007811;28;20424;-69
2021/08/13 03:06:47;;;;;;;5.78;4.30;;;;;;;14.83;49.44;95959.88;5007380;28;20450;-69
2021/08/13 03:09:13;;;;;;;8.63;4.72;;;;;;;14.83;49.53;95960.69;5008132;28;20061;-69
2021/08/13 03:11:39;;;;;;;7.40;4.15;;;;;;;14.80;49.29;95960.28;4992270;28;20022;-69
2021/08/13 03:14:05;;;;;;;6.20;4.22;;;;;;;14.77;49.48;95968.69;5007985;28;20037;-69
2021/08/13 03:16:33;;;;;;;5.38;4.13;;;;;;;14.74;49.72;95969.94;4991098;28;20132;-69
2021/08/13 03:18:59;;;;;;;6.45;4.28;;;;;;;14.77;49.79;95968.69;4992064;28;20037;-69
2021/08/13 03:21:24;;;;;;;6.35;4.13;;;;;;;14.81;49.51;95965.44;5007896;28;20507;-69
2021/08/13 03:23:50;;;;;;;7.70;4.30;;;;;;;14.84;49.36;95959.69;5008664;28;20967;-69
2021/08/13 03:26:15;;;;;;;5.63;4.25;;;;;;;14.89;48.82;95953.72;5007475;28;20038;-70
2021/08/13 03:28:41;;;;;;;6.75;4.65;;;;;;;14.91;49.00;95961.56;4991323;28;20090;-69
2021/08/13 03:31:06;;;;;;;7.85;4.68;;;;;;;14.90;49.14;95957.25;5009713;28;20026;-70
2021/08/13 03:33:32;;;;;;;6.47;4.50;;;;;;;14.83;49.52;95957.22;5009474;28;20499;-70
2021/08/13 03:35:57;;;;;;;7.32;4.25;;;;;;;14.84;49.57;95950.81;5000930;28;20034;-69
2021/08/13 03:38:23;;;;;;;7.05;4.45;;;;;;;14.85;49.29;95960.50;5009359;28;20052;-69
2021/08/13 03:40:48;;;;;;;6.85;4.43;;;;;;;14.92;48.86;95964.06;5009136;28;20041;-70
2021/08/13 03:43:14;;;;;;;6.47;4.55;;;;;;;14.90;48.76;95962.59;5010004;28;20368;-69
2021/08/13 03:45:39;;;;;;;8.68;4.47;;;;;;;14.88;48.76;95967.31;5009144;28;20042;-65
2021/08/13 03:48:04;;;;;;;7.68;4.72;;;;;;;14.85;49.03;95974.75;5008541;28;20449;-64
2021/08/13 03:50:30;;;;;;;9.13;4.68;;;;;;;14.81;49.26;95973.47;5009218;28;20034;-65
2021/08/13 03:52:55;;;;;;;6.30;4.50;;;;;;;14.76;49.24;95973.25;5008484;28;20041;-64
2021/08/13 03:55:21;;;;;;;7.13;4.70;;;;;;;14.73;49.70;95973.59;5009306;28;20439;-64
2021/08/13 03:57:46;;;;;;;6.20;4.40;;;;;;;14.73;48.97;95976.28;5008355;28;20104;-66
2021/08/13 04:00:12;;;;;;;7.00;4.30;;;;;;;14.70;49.41;95982.03;5008516;28;20092;-64
2021/08/13 04:02:37;;;;;;;10.15;4.22;;;;;;;14.66;49.47;95981.59;5007087;28;20022;-64
2021/08/13 04:05:03;;;;;;;6.38;4.45;;;;;;;14.65;49.16;95971.91;5008465;28;20069;-65
2021/08/13 04:07:29;;;;;;;7.22;5.10;;;;;;;14.67;49.33;95969.03;5008783;28;20095;-64
2021/08/13 04:09:54;;;;;;;7.45;4.22;;;;;;;14.67;48.93;95967.19;5008426;28;20096;-64
2021/08/13 04:12:20;;;;;;;6.03;4.07;;;;;;;14.61;49.22;95967.94;5008485;28;20404;-64
2021/08/13 04:14:45;;;;;;;7.60;4.57;;;;;;;14.62;49.01;95966.09;5008877;28;20117;-64
2021/08/13 04:17:11;;;;;;;5.07;4.05;;;;;;;14.56;49.27;95965.88;5008083;28;20041;-64
2021/08/13 04:19:36;;;;;;;6.20;4.20;;;;;;;14.59;48.73;95968.13;5003829;28;20087;-64
2021/08/13 04:22:02;;;;;;;7.32;4.47;;;;;;;14.55;49.39;95963.38;5008743;28;20034;-65
2021/08/13 04:24:27;;;;;;;5.40;4.07;;;;;;;14.54;48.89;95959.03;5008334;28;20249;-64
2021/08/13 04:26:53;;;;;;;6.55;4.13;;;;;;;14.53;49.20;95968.09;5008490;28;20038;-65
2021/08/13 04:29:18;;;;;;;7.25;3.92;;;;;;;14.50;49.32;95973.84;5007802;28;20042;-65
2021/08/13 04:31:44;;;;;;;4.90;4.10;;;;;;;14.50;49.48;95963.13;5008743;28;20109;-65
2021/08/13 04:34:09;;;;;;;7.85;4.20;;;;;;;14.51;49.57;95954.91;5007782;28;20491;-64
2021/08/13 04:36:34;;;;;;;4.50;3.70;;;;;;;14.54;49.47;95959.88;5007702;28;20041;-66
2021/08/13 04:39:00;;;;;;;5.40;3.95;;;;;;;14.60;49.38;95955.59;5008588;28;20042;-68
2021/08/13 04:41:25;;;;;;;6.38;4.07;;;;;;;14.63;49.20;95951.69;5008380;28;20069;-68
2021/08/13 04:43:51;;;;;;;5.55;4.30;;;;;;;14.63;49.44;95952.53;5008432;28;20422;-65
2021/08/13 04:46:16;;;;;;;5.45;3.92;;;;;;;14.68;49.48;95944.72;5006324;28;20033;-64
2021/08/13 04:48:42;;;;;;;7.90;4.47;;;;;;;14.72;49.40;95945.97;5007153;28;20042;-65
2021/08/13 04:51:07;;;;;;;6.97;4.18;;;;;;;14.81;49.25;95946.69;5008101;28;20034;-64
2021/08/13 04:53:32;;;;;;;5.82;4.50;;;;;;;14.89;48.91;95943.00;5006725;28;20048;-64
2021/08/13 04:55:58;;;;;;;7.30;4.18;;;;;;;14.99;48.51;95948.00;5007556;28;20460;-64
2021/08/13 04:58:23;;;;;;;6.40;3.95;;;;;;;15.06;48.41;95951.56;5007858;28;20279;-64
2021/08/13 05:00:49;;;;;;;8.80;4.43;;;;;;;15.11;48.16;95956.31;5007826;28;20033;-65
2021/08/13 05:03:14;;;;;;;6.05;4.57;;;;;;;15.14;48.44;95961.28;5006964;28;20038;-64
2021/08/13 05:05:40;;;;;;;5.70;4.28;;;;;;;15.18;48.32;95959.03;5006506;28;20479;-66
2021/08/13 05:08:06;;;;;;;7.35;4.57;;;;;;;15.31;48.12;95964.47;5007951;28;20372;-64
2021/08/13 05:10:32;;;;;;;6.68;4.28;;;;;;;15.42;48.28;95967.59;5008033;28;20042;-65
2021/08/13 05:12:57;;;;;;;7.32;4.55;;;;;;;15.54;48.67;95974.03;5008252;28;20537;-65
2021/08/13 05:15:23;;;;;;;5.88;4.30;;;;;;;15.62;48.31;95975.75;5006672;28;20423;-66
2021/08/13 05:17:48;;;;;;;6.97;4.15;;;;;;;15.69;47.61;95984.66;5007042;28;20610;-67
2021/08/13 05:20:13;;;;;;;5.95;4.07;;;;;;;15.79;47.55;95986.13;5007955;28;20479;-66
2021/08/13 05:22:39;;;;;;;5.95;3.88;;;;;;;15.84;47.37;95987.16;5007699;28;20518;-64
2021/08/13 05:25:09;;;;;;;8.02;4.50;;;;;;;15.95;47.44;95988.41;5008085;28;20463;-66
2021/08/13 05:27:35;;;;;;;6.53;4.18;;;;;;;16.04;47.08;95990.94;5008449;28;20038;-67
2021/08/13 05:30:00;;;;;;;6.32;4.60;;;;;;;16.12;47.00;95983.50;5008794;28;20044;-68
2021/08/13 05:32:27;;;;;;;6.90;4.13;;;;;;;16.26;46.89;95991.56;5012190;28;20054;-69
2021/08/13 05:34:52;;;;;;;7.63;3.97;;;;;;;16.35;46.74;95989.56;5012322;28;20073;-68
2021/08/13 05:37:18;;;;;;;6.30;4.32;;;;;;;16.52;46.31;95990.78;5011723;28;20042;-69
2021/08/13 05:39:43;;;;;;;6.20;4.18;;;;;;;16.66;46.29;95984.59;5012255;28;20708;-68
2021/08/13 05:42:09;;;;;;;5.60;4.10;;;;;;;16.77;45.89;95998.19;5010064;28;20144;-69
2021/08/13 05:44:34;;;;;;;5.88;4.20;;;;;;;16.94;46.15;95999.63;5011315;28;20046;-69
2021/08/13 05:47:00;;;;;;;7.82;4.13;;;;;;;17.06;45.80;95999.84;5008765;28;20061;-68
2021/08/13 05:49:25;;;;;;;6.20;4.70;;;;;;;17.21;45.62;96002.31;4999256;28;20046;-69
2021/08/13 05:51:50;;;;;;;5.47;4.10;;;;;;;17.40;45.75;96000.56;5008510;28;20525;-69
2021/08/13 05:54:16;;;;;;;6.10;4.38;;;;;;;17.66;44.42;96002.34;5006681;28;20065;-69
2021/08/13 05:56:41;;;;;;;6.22;4.43;;;;;;;17.92;45.29;95994.38;5007906;28;20041;-69
2021/08/13 05:59:07;;;;;;;10.57;5.07;;;;;;;18.14;46.42;96002.09;5005144;28;20032;-69
2021/08/13 06:01:32;;;;;;;7.18;4.68;;;;;;;18.33;45.42;95996.81;5007823;28;20046;-68
2021/08/13 06:03:58;;;;;;;6.63;4.50;;;;;;;18.65;45.61;95994.09;5002913;28;20038;-64
2021/08/13 06:06:23;;;;;;;6.65;4.65;;;;;;;19.00;45.09;96001.63;5007833;28;20026;-66
2021/08/13 06:08:48;;;;;;;6.57;4.60;;;;;;;19.31;44.15;95999.09;5006544;28;20066;-65
2021/08/13 06:11:14;;;;;;;9.30;5.03;;;;;;;19.61;43.62;95994.78;5006915;28;20033;-63
2021/08/13 06:13:39;;;;;;;6.75;5.00;;;;;;;19.88;44.20;95991.75;5006456;28;20065;-67
2021/08/13 06:16:05;;;;;;;8.75;4.93;;;;;;;20.06;43.22;95985.50;5003971;28;20799;-67
2021/08/13 06:18:30;;;;;;;8.50;5.18;;;;;;;20.30;42.39;95996.38;5006889;28;20598;-67
2021/08/13 06:20:56;;;;;;;7.45;5.28;;;;;;;20.51;42.24;96000.41;5005145;28;20048;-66
2021/08/13 06:23:21;;;;;;;7.45;5.10;;;;;;;20.73;42.58;95999.84;5005073;28;20045;-66
2021/08/13 06:25:47;;;;;;;7.00;4.65;;;;;;;21.02;42.52;96008.09;5009046;28;20049;-66
2021/08/13 06:28:12;;;;;;;10.32;5.80;;;;;;;21.26;41.68;96016.19;4998884;28;20030;-66
2021/08/13 06:30:38;;;;;;;9.77;5.65;;;;;;;21.23;40.14;96014.78;5008559;28;20089;-67
2021/08/13 06:33:03;;;;;;;8.18;5.03;;;;;;;21.43;40.15;96007.38;5009665;28;20426;-68
2021/08/13 06:35:29;;;;;;;7.90;4.95;;;;;;;21.77;38.74;96008.34;5011276;28;20030;-66
2021/08/13 06:37:55;;;;;;;6.68;4.80;;;;;;;21.74;38.36;96011.53;5010412;28;20394;-66
2021/08/13 06:40:20;;;;;;;7.20;4.93;;;;;;;21.66;39.82;96005.66;5010528;28;20380;-68
2021/08/13 06:42:46;;;;;;;8.55;4.72;;;;;;;21.83;38.82;96003.84;5010590;28;20025;-68
2021/08/13 06:45:13;;;;;;;11.30;6.15;;;;;;;22.19;37.55;96002.91;5006814;28;20107;-68
2021/08/13 06:47:39;;;;;;;8.45;5.93;;;;;;;22.02;38.06;96006.38;5005735;28;20084;-68
2021/08/13 06:50:05;;;;;;;7.80;5.68;;;;;;;22.17;35.76;96005.03;5009521;28;20108;-67
2021/08/13 06:52:30;;;;;;;6.90;5.07;;;;;;;21.94;38.39;96009.47;5009990;28;20376;-66
2021/08/13 06:54:56;;;;;;;9.10;5.50;;;;;;;21.84;39.10;96018.22;5009351;28;20017;-67
2021/08/13 06:57:21;;;;;;;8.50;5.15;;;;;;;21.46;39.08;96025.84;5008759;28;20065;-76
2021/08/13 06:59:47;;;;;;;8.48;6.93;;;;;;;22.10;36.51;96021.44;5008633;28;20034;-76
2021/08/13 07:02:12;;;;;;;8.52;5.35;;;;;;;22.59;37.12;96023.69;5006722;28;20042;-65
2021/08/13 07:04:38;;;;;;;10.55;5.00;;;;;;;22.87;36.70;96027.38;5008850;28;20121;-76
2021/08/13 07:07:03;;;;;;;5.82;4.63;;;;;;;23.20;36.41;96026.78;4988742;28;20363;-76
2021/08/13 07:09:29;;;;;;;7.10;5.03;;;;;;;22.79;36.98;96023.19;5007345;28;20180;-77
2021/08/13 07:11:54;;;;;;;10.85;5.22;;;;;;;23.01;36.64;96029.75;5010305;28;20089;-78
2021/08/13 07:14:20;;;;;;;7.18;4.57;;;;;;;22.76;37.23;96036.41;5008974;28;20070;-77
2021/08/13 07:16:45;;;;;;;9.60;5.30;;;;;;;23.12;36.82;96039.66;5010100;28;20110;-77
2021/08/13 07:19:10;;;;;;;7.70;5.38;;;;;;;23.67;35.20;96037.19;5009492;28;20094;-78
2021/08/13 07:21:36;;;;;;;10.48;5.65;;;;;;;22.67;36.33;96041.44;5010858;28;20125;-78
2021/08/13 07:24:01;;;;;;;8.05;5.22;;;;;;;22.76;36.90;96041.84;5010726;28;20086;-78
2021/08/13 07:26:27;;;;;;;11.15;5.10;;;;;;;22.59;37.72;96050.81;4993341;28;20086;-78
2021/08/13 07:28:52;;;;;;;7.85;4.95;;;;;;;22.85;37.19;96053.13;5008969;28;20383;-76
2021/08/13 07:31:18;;;;;;;7.53;4.70;;;;;;;23.36;36.15;96050.38;4992749;28;20094;-76
2021/08/13 07:33:43;;;;;;;8.00;4.85;;;;;;;23.74;35.22;96047.06;4992227;28;20033;-76
2021/08/13 07:36:08;;;;;;;6.65;4.90;;;;;;;22.85;37.18;96055.81;5007781;28;20026;-76
2021/08/13 07:38:39;;;;;;;8.63;4.93;;;;;;;23.38;36.61;96050.09;5008549;28;20041;-77
2021/08/13 07:41:06;;;;;;;7.00;5.05;;;;;;;23.98;35.44;96046.81;5007950;28;20073;-77
2021/08/13 07:43:34;;;;;;;8.73;4.78;;;;;;;24.18;35.27;96048.94;5008859;28;20084;-76
2021/08/13 07:46:01;;;;;;;7.18;4.75;;;;;;;23.76;35.25;96053.09;5008727;28;20400;-77
2021/08/13 07:48:26;;;;;;;9.38;5.40;;;;;;;22.59;37.73;96066.25;5009094;28;20514;-77
2021/08/13 07:50:52;;;;;;;11.70;4.83;;;;;;;23.19;37.04;96057.72;5008649;28;20037;-77
2021/08/13 07:53:17;;;;;;;7.85;4.45;;;;;;;23.30;37.24;96054.91;4991267;28;20430;-77
2021/08/13 07:55:42;;;;;;;8.77;5.07;;;;;;;24.33;34.65;96059.16;5008666;28;20045;-77
2021/08/13 07:58:08;;;;;;;7.30;5.20;;;;;;;24.32;34.48;96060.22;5009242;28;20033;-77
2021/08/13 08:00:33;;;;;;;6.23;4.70;;;;;;;24.39;34.61;96055.44;5007509;28;20537;-76
2021/08/13 08:02:59;;;;;;;8.82;5.47;;;;;;;24.69;33.19;96055.97;5007853;28;20176;-77
2021/08/13 08:05:24;;;;;;;6.55;4.93;;;;;;;24.83;33.23;96062.63;5008119;28;20495;-77
2021/08/13 08:07:50;;;;;;;8.50;4.82;;;;;;;24.78;33.59;96046.22;4992242;28;20022;-78
2021/08/13 08:10:15;;;;;;;9.30;5.20;;;;;;;24.74;34.88;96052.47;5008207;28;20096;-78
2021/08/13 08:12:41;;;;;;;8.13;4.97;;;;;;;24.67;33.52;96063.56;5007380;28;20495;-78
2021/08/13 08:15:07;;;;;;;7.05;4.88;;;;;;;24.79;34.14;96053.34;5008298;28;20033;-78
2021/08/13 08:17:32;;;;;;;9.60;5.43;;;;;;;24.71;34.43;96054.63;4991229;28;20042;-75
2021/08/13 08:19:58;;;;;;;9.02;4.90;;;;;;;24.95;33.80;96054.28;5007253;28;20600;-76
2021/08/13 08:22:23;;;;;;;8.77;6.00;;;;;;;24.72;32.78;96055.47;5008501;28;20084;-75
2021/08/13 08:24:49;;;;;;;9.97;5.90;;;;;;;24.62;33.95;96064.34;5007027;28;20053;-75
2021/08/13 08:27:14;;;;;;;9.63;5.00;;;;;;;24.85;33.94;96059.66;5006985;28;20039;-75
2021/08/13 08:29:39;;;;;;;9.10;5.23;;;;;;;24.32;34.51;96057.50;5006931;28;20049;-76
2021/08/13 08:32:05;;;;;;;10.23;5.00;;;;;;;25.26;33.31;96059.16;5008364;28;20041;-77
2021/08/13 08:34:31;;;;;;;7.93;5.50;;;;;;;24.69;34.47;96058.69;5008808;28;20064;-77
2021/08/13 08:36:56;;;;;;;10.57;5.43;;;;;;;23.24;37.07;96058.63;5010510;28;20049;-77
2021/08/13 08:39:23;;;;;;;7.60;5.47;;;;;;;23.90;35.87;96059.75;5009626;28;20033;-77
2021/08/13 08:41:48;;;;;;;;;;;;;;;24.13;35.48;96063.28;5011214;28;20037;-77
2021/08/13 08:44:14;;;;;;;10.13;5.70;;;;;;;24.93;34.51;96074.69;5009379;28;19986;-77
2021/08/13 08:46:39;;;;;;;9.10;5.20;;;;;;;25.91;32.71;96082.66;5007591;28;20087;-77
2021/08/13 08:49:05;;;;;;;8.17;5.10;;;;;;;26.20;31.65;96082.25;4972854;28;20109;-78
2021/08/13 08:51:30;;;;;;;8.23;5.13;;;;;;;26.48;31.47;96079.31;5011393;28;20081;-77
2021/08/13 08:53:56;;;;;;;7.80;5.00;;;;;;;26.36;32.59;96085.84;4975677;28;20045;-78
2021/08/13 08:56:25;;;;;;;7.32;5.07;;;;;;;26.21;32.43;96088.53;5010940;28;20042;-76
2021/08/13 08:58:51;;;;;;;7.97;5.32;;;;;;;25.17;33.64;96080.59;5008471;28;20022;-76
2021/08/13 09:01:17;;;;;;;6.80;5.00;;;;;;;25.92;33.48;96091.66;4989730;28;20080;-76
2021/08/13 09:03:43;;;;;;;7.57;5.07;;;;;;;25.56;31.26;96079.50;5006902;28;20100;-76
2021/08/13 09:06:08;;;;;;;12.32;5.40;;;;;;;25.68;30.64;96079.28;4979865;28;20045;-74
2021/08/13 09:08:34;;;;;;;9.37;5.33;;;;;;;26.32;29.14;96083.91;5013350;28;20379;-76
2021/08/13 09:10:59;;;;;;;10.27;5.27;;;;;;;26.27;29.96;96081.19;5016024;28;20029;-78
2021/08/13 09:13:25;;;;;;;12.23;5.57;;;;;;;26.15;30.40;96089.59;4981799;28;20730;-78
2021/08/13 09:15:52;;;;;;;12.77;5.50;;;;;;;25.34;31.48;96094.06;5016793;28;20041;-79
2021/08/13 09:18:24;;;;;;;;;;;;;;;25.72;31.62;96096.75;5017618;28;20129;-78
2021/08/13 09:20:57;;;;;;;11.43;5.57;;;;;;;25.46;32.45;96096.59;5017310;28;20011;-78
2021/08/13 09:23:32;;;;;;;10.77;5.43;;;;;;;24.97;32.79;96103.03;5000263;28;20085;-79
2021/08/13 09:26:00;;;;;;;7.22;5.18;;;;;;;24.98;32.60;96101.16;5015861;28;20065;-77
2021/08/13 09:29:00;;;;;;;10.75;5.40;;;;;;;25.58;32.16;96103.75;5016180;28;20101;-78
2021/08/13 09:31:30;;;;;;;9.02;5.53;;;;;;;24.87;32.16;96103.75;5015920;28;20033;-76
2021/08/13 09:34:12;;;;;;;9.07;5.35;;;;;;;25.22;32.29;96096.19;5009844;28;20041;-76
2021/08/13 09:36:53;;;;;;;8.05;5.20;;;;;;;25.31;31.65;96100.03;4997713;28;20047;-79
2021/08/13 09:39:54;;;;;;;10.15;4.93;;;;;;;24.56;32.97;96101.59;5006724;28;20018;-78
2021/08/13 09:42:19;;;;;;;8.05;5.55;;;;;;;24.96;32.59;96102.25;5003275;28;20049;-78
2021/08/13 09:44:45;;;;;;;8.38;5.45;;;;;;;25.45;34.08;96108.56;4980332;28;20043;-79
2021/08/13 09:47:11;;;;;;;9.10;5.40;;;;;;;25.05;35.82;96104.50;4998569;28;20475;-79
2021/08/13 09:49:38;;;;;;;;;;;;;;;24.56;34.32;96104.31;5002429;28;20096;-79
2021/08/13 09:52:14;;;;;;;9.68;5.25;;;;;;;25.44;35.56;96109.66;5019971;28;19968;-79
2021/08/13 09:54:40;;;;;;;9.47;5.50;;;;;;;25.45;33.38;96105.84;5018920;28;20507;-79
2021/08/13 09:57:10;;;;;;;8.27;5.90;;;;;;;25.40;33.42;96105.81;5015699;28;20036;-78
2021/08/13 09:59:36;;;;;;;14.20;5.82;;;;;;;25.24;34.53;96101.34;5018232;28;20034;-79
2021/08/13 10:02:21;;;;;;;9.68;5.00;;;;;;;25.35;35.76;96100.31;5017297;28;20093;-79
2021/08/13 10:04:46;;;;;;;8.85;5.47;;;;;;;25.70;33.56;96095.38;5017014;28;20577;-79
2021/08/13 10:07:17;;;;;;;12.53;5.70;;;;;;;25.83;34.28;96100.34;5000228;28;20034;-79
2021/08/13 10:09:42;;;;;;;10.27;5.55;;;;;;;26.53;32.16;96101.16;5019408;28;20521;-79
2021/08/13 10:12:08;;;;;;;11.20;5.50;;;;;;;25.91;32.57;96096.31;5018057;28;20022;-79
2021/08/13 10:14:33;;;;;;;15.43;6.17;;;;;;;26.03;30.91;96101.53;5016072;28;20021;-78
2021/08/13 10:17:13;;;;;;;10.48;5.65;;;;;;;26.31;32.04;96109.56;5017961;28;20058;-79
2021/08/13 10:19:42;;;;;;;6.82;5.50;;;;;;;26.33;32.64;96093.72;4984368;28;20065;-78
2021/08/13 10:22:08;;;;;;;8.93;5.47;;;;;;;26.56;31.38;96097.06;5019869;28;20038;-79
2021/08/13 10:24:34;;;;;;;8.63;5.30;;;;;;;26.30;31.66;96092.38;5018575;28;20038;-79
2021/08/13 10:27:01;;;;;;;9.75;5.60;;;;;;;26.31;32.62;96098.66;5002285;28;20021;-78
2021/08/13 10:29:26;;;;;;;8.80;5.70;;;;;;;26.34;32.96;96098.13;5018321;28;20522;-78
2021/08/13 10:31:52;;;;;;;9.37;5.80;;;;;;;25.89;32.99;96098.47;5020517;28;20026;-78
2021/08/13 10:34:17;;;;;;;11.30;5.80;;;;;;;25.86;33.69;96104.44;4992364;28;20057;-79
2021/08/13 10:36:43;;;;;;;9.13;6.03;;;;;;;25.99;31.92;96093.06;5008051;28;20395;-78
2021/08/13 10:39:08;;;;;;;10.13;5.87;;;;;;;25.91;33.17;96103.66;4993517;28;20022;-78
2021/08/13 10:41:38;;;;;;;8.30;5.22;;;;;;;24.47;35.51;96103.09;4992828;28;20030;-79
2021/08/13 10:44:04;;;;;;;6.82;5.75;;;;;;;24.07;36.25;96099.66;5008391;28;20120;-79
2021/08/13 10:46:31;;;;;;;9.07;6.20;;;;;;;24.61;34.55;96108.16;4974651;28;20022;-78
2021/08/13 10:48:56;;;;;;;7.07;5.80;;;;;;;25.34;35.01;96098.69;4992571;28;20030;-78
2021/08/13 10:51:26;;;;;;;8.13;5.57;;;;;;;24.36;34.81;96109.50;5009196;28;20792;-78
2021/08/13 10:54:03;;;;;;;8.40;5.70;;;;;;;24.31;35.58;96110.28;5007771;28;20565;-78
2021/08/13 10:56:42;;;;;;;7.78;5.70;;;;;;;24.42;34.61;96103.91;5021414;28;20033;-77
2021/08/13 10:59:08;;;;;;;9.65;6.20;;;;;;;24.64;35.43;96108.44;5003643;28;20025;-78
2021/08/13 11:01:34;;;;;;;11.65;6.18;;;;;;;25.21;32.96;96108.97;4992551;28;20050;-79
2021/08/13 11:03:59;;;;;;;8.13;5.68;;;;;;;25.42;33.62;96103.63;5008248;28;20037;-78
2021/08/13 11:06:36;;;;;;;9.90;6.40;;;;;;;25.95;32.13;96099.31;5008976;28;20030;-80
2021/08/13 11:09:03;;;;;;;8.18;6.15;;;;;;;24.09;34.03;96097.50;5007965;28;20069;-79
2021/08/13 11:11:47;;;;;;;7.80;5.53;;;;;;;25.60;31.37;96109.78;5007369;28;20037;-79
2021/08/13 11:14:22;;;;;;;8.57;5.60;;;;;;;26.40;30.45;96097.03;5008249;28;20043;-78
2021/08/13 11:16:47;;;;;;;10.60;5.50;;;;;;;26.23;29.82;96108.16;5008919;28;20117;-78
2021/08/13 11:19:13;;;;;;;12.63;6.50;;;;;;;25.91;31.25;96100.94;4972641;28;20043;-78
2021/08/13 11:21:53;;;;;;;7.90;5.30;;;;;;;26.69;30.89;96087.56;4981261;28;20042;-78
2021/08/13 11:24:20;;;;;;;9.20;5.95;;;;;;;27.72;30.93;96092.13;4992697;28;20132;-78
2021/08/13 11:26:55;;;;;;;8.57;6.22;;;;;;;26.71;31.35;96094.38;4991042;28;20494;-79
2021/08/13 11:29:27;;;;;;;10.45;6.05;;;;;;;27.46;31.13;96091.38;5002981;28;20110;-79
2021/08/13 11:31:53;;;;;;;8.45;5.78;;;;;;;28.56;29.15;96089.84;5007047;28;20133;-78
2021/08/13 11:34:46;;;;;;;11.67;5.53;;;;;;;28.00;29.35;96105.41;4967946;28;20042;-78